sensor_id;sensor_type;location;lat;lon;timestamp;P1;durP1;ratioP1;P2;durP2;ratioP2
3995;SDS011;2012;49.794;9.722;2023-08-31T00:00:50;1.50;;;1.40;;
3995;SDS011;2012;49.794;9.722;2023-08-31T00:03:20;1.77;;;1.40;;
3995;SDS011;2012;49.794;9.722;2023-08-31T00:05:47;4.53;;;1.70;;
3995;SDS011;2012;49.794;9.722;2023-08-31T00:08:17;4.20;;;1.50;;
3995;SDS011;2012;49.794;9.722;2023-08-31T00:10:44;1.50;;;1.40;;
3995;SDS011;2012;49.794;9.722;2023-08-31T00:13:11;2.10;;;1.37;;
3995;SDS011;2012;49.794;9.722;2023-08-31T00:15:38;1.90;;;1.37;;
3995;SDS011;2012;49.794;9.722;2023-08-31T00:18:07;1.73;;;1.47;;
3995;SDS011;2012;49.794;9.722;2023-08-31T00:20:34;2.20;;;1.43;;
3995;SDS011;2012;49.794;9.722;2023-08-31T00:23:01;6.47;;;1.73;;
3995;SDS011;2012;49.794;9.722;2023-08-31T00:25:28;2.23;;;1.30;;
3995;SDS011;2012;49.794;9.722;2023-08-31T00:27:55;3.07;;;1.80;;
3995;SDS011;2012;49.794;9.722;2023-08-31T00:30:23;1.40;;;1.30;;
3995;SDS011;2012;49.794;9.722;2023-08-31T00:32:54;1.73;;;1.20;;
3995;SDS011;2012;49.794;9.722;2023-08-31T00:35:21;9.00;;;1.40;;
3995;SDS011;2012;49.794;9.722;2023-08-31T00:37:49;1.67;;;1.40;;
3995;SDS011;2012;49.794;9.722;2023-08-31T00:40:17;1.87;;;1.23;;
3995;SDS011;2012;49.794;9.722;2023-08-31T00:42:44;2.10;;;1.90;;
3995;SDS011;2012;49.794;9.722;2023-08-31T00:45:11;1.77;;;1.67;;
3995;SDS011;2012;49.794;9.722;2023-08-31T00:47:38;2.23;;;1.77;;
3995;SDS011;2012;49.794;9.722;2023-08-31T00:50:06;7.30;;;2.00;;
3995;SDS011;2012;49.794;9.722;2023-08-31T00:52:34;2.27;;;1.63;;
3995;SDS011;2012;49.794;9.722;2023-08-31T00:55:02;1.67;;;1.57;;
3995;SDS011;2012;49.794;9.722;2023-08-31T00:57:32;2.50;;;1.70;;
3995;SDS011;2012;49.794;9.722;2023-08-31T00:59:59;1.80;;;1.53;;
3995;SDS011;2012;49.794;9.722;2023-08-31T01:05:46;2.97;;;1.50;;
3995;SDS011;2012;49.794;9.722;2023-08-31T01:14:00;4.60;;;2.13;;
3995;SDS011;2012;49.794;9.722;2023-08-31T01:16:34;2.50;;;1.63;;
3995;SDS011;2012;49.794;9.722;2023-08-31T01:19:04;3.57;;;1.53;;
3995;SDS011;2012;49.794;9.722;2023-08-31T01:21:38;2.57;;;1.97;;
3995;SDS011;2012;49.794;9.722;2023-08-31T01:24:08;3.23;;;2.27;;
3995;SDS011;2012;49.794;9.722;2023-08-31T01:26:36;5.23;;;3.73;;
3995;SDS011;2012;49.794;9.722;2023-08-31T01:29:04;2.83;;;2.30;;
3995;SDS011;2012;49.794;9.722;2023-08-31T01:31:31;4.40;;;2.13;;
3995;SDS011;2012;49.794;9.722;2023-08-31T01:33:58;1.63;;;1.53;;
3995;SDS011;2012;49.794;9.722;2023-08-31T01:36:29;4.70;;;2.60;;
3995;SDS011;2012;49.794;9.722;2023-08-31T01:39:06;3.40;;;2.20;;
3995;SDS011;2012;49.794;9.722;2023-08-31T01:41:58;3.53;;;2.17;;
3995;SDS011;2012;49.794;9.722;2023-08-31T01:44:30;3.17;;;2.73;;
3995;SDS011;2012;49.794;9.722;2023-08-31T01:47:02;2.97;;;2.50;;
3995;SDS011;2012;49.794;9.722;2023-08-31T01:49:37;2.13;;;2.03;;
3995;SDS011;2012;49.794;9.722;2023-08-31T01:52:05;2.40;;;2.20;;
3995;SDS011;2012;49.794;9.722;2023-08-31T01:54:33;2.10;;;1.90;;
3995;SDS011;2012;49.794;9.722;2023-08-31T01:57:00;5.47;;;1.97;;
3995;SDS011;2012;49.794;9.722;2023-08-31T01:59:29;3.97;;;1.83;;
3995;SDS011;2012;49.794;9.722;2023-08-31T02:01:56;4.63;;;2.47;;
3995;SDS011;2012;49.794;9.722;2023-08-31T02:04:24;3.63;;;2.13;;
3995;SDS011;2012;49.794;9.722;2023-08-31T02:06:51;2.83;;;2.33;;
3995;SDS011;2012;49.794;9.722;2023-08-31T02:09:18;2.80;;;2.13;;
3995;SDS011;2012;49.794;9.722;2023-08-31T02:11:45;4.67;;;1.90;;
3995;SDS011;2012;49.794;9.722;2023-08-31T02:14:13;2.70;;;2.13;;
3995;SDS011;2012;49.794;9.722;2023-08-31T02:16:41;3.77;;;2.00;;
3995;SDS011;2012;49.794;9.722;2023-08-31T02:19:07;4.00;;;2.30;;
3995;SDS011;2012;49.794;9.722;2023-08-31T02:21:36;4.90;;;2.40;;
3995;SDS011;2012;49.794;9.722;2023-08-31T02:24:03;4.23;;;2.80;;
3995;SDS011;2012;49.794;9.722;2023-08-31T02:26:31;4.43;;;2.97;;
3995;SDS011;2012;49.794;9.722;2023-08-31T02:28:58;2.30;;;2.10;;
3995;SDS011;2012;49.794;9.722;2023-08-31T02:31:25;3.90;;;3.03;;
3995;SDS011;2012;49.794;9.722;2023-08-31T02:33:52;6.80;;;2.37;;
3995;SDS011;2012;49.794;9.722;2023-08-31T02:36:19;5.93;;;2.57;;
3995;SDS011;2012;49.794;9.722;2023-08-31T02:38:47;2.47;;;2.27;;
3995;SDS011;2012;49.794;9.722;2023-08-31T02:41:16;8.83;;;2.83;;
3995;SDS011;2012;49.794;9.722;2023-08-31T02:43:43;3.17;;;2.73;;
3995;SDS011;2012;49.794;9.722;2023-08-31T02:46:10;4.23;;;2.67;;
3995;SDS011;2012;49.794;9.722;2023-08-31T02:48:37;3.63;;;2.40;;
3995;SDS011;2012;49.794;9.722;2023-08-31T02:51:07;4.03;;;2.50;;
3995;SDS011;2012;49.794;9.722;2023-08-31T02:53:34;5.63;;;2.90;;
3995;SDS011;2012;49.794;9.722;2023-08-31T02:56:01;12.67;;;3.23;;
3995;SDS011;2012;49.794;9.722;2023-08-31T02:58:29;5.70;;;3.43;;
3995;SDS011;2012;49.794;9.722;2023-08-31T03:01:05;4.47;;;3.03;;
3995;SDS011;2012;49.794;9.722;2023-08-31T03:03:34;5.13;;;3.10;;
3995;SDS011;2012;49.794;9.722;2023-08-31T03:06:01;3.00;;;2.70;;
3995;SDS011;2012;49.794;9.722;2023-08-31T03:08:29;3.90;;;3.20;;
3995;SDS011;2012;49.794;9.722;2023-08-31T03:10:56;3.30;;;3.00;;
3995;SDS011;2012;49.794;9.722;2023-08-31T03:13:24;3.33;;;3.00;;
3995;SDS011;2012;49.794;9.722;2023-08-31T03:15:51;3.17;;;2.90;;
3995;SDS011;2012;49.794;9.722;2023-08-31T03:18:18;4.33;;;3.20;;
3995;SDS011;2012;49.794;9.722;2023-08-31T03:20:46;4.57;;;3.07;;
3995;SDS011;2012;49.794;9.722;2023-08-31T03:23:13;6.30;;;3.07;;
3995;SDS011;2012;49.794;9.722;2023-08-31T03:25:40;5.53;;;3.07;;
3995;SDS011;2012;49.794;9.722;2023-08-31T03:28:08;4.20;;;3.30;;
3995;SDS011;2012;49.794;9.722;2023-08-31T03:30:36;6.27;;;3.70;;
3995;SDS011;2012;49.794;9.722;2023-08-31T03:33:03;3.43;;;3.13;;
3995;SDS011;2012;49.794;9.722;2023-08-31T03:35:31;4.07;;;2.80;;
3995;SDS011;2012;49.794;9.722;2023-08-31T03:37:59;5.50;;;3.00;;
3995;SDS011;2012;49.794;9.722;2023-08-31T03:40:27;3.57;;;3.23;;
3995;SDS011;2012;49.794;9.722;2023-08-31T03:42:54;9.20;;;3.20;;
3995;SDS011;2012;49.794;9.722;2023-08-31T03:45:21;4.23;;;2.83;;
3995;SDS011;2012;49.794;9.722;2023-08-31T03:47:49;3.77;;;2.87;;
3995;SDS011;2012;49.794;9.722;2023-08-31T03:50:16;3.93;;;2.87;;
3995;SDS011;2012;49.794;9.722;2023-08-31T03:52:45;7.50;;;2.90;;
3995;SDS011;2012;49.794;9.722;2023-08-31T03:55:12;3.23;;;2.93;;
3995;SDS011;2012;49.794;9.722;2023-08-31T03:57:40;3.40;;;3.10;;
3995;SDS011;2012;49.794;9.722;2023-08-31T04:00:14;7.70;;;2.90;;
3995;SDS011;2012;49.794;9.722;2023-08-31T04:02:42;20.87;;;3.33;;
3995;SDS011;2012;49.794;9.722;2023-08-31T04:05:12;3.40;;;3.10;;
3995;SDS011;2012;49.794;9.722;2023-08-31T04:07:42;9.50;;;3.17;;
3995;SDS011;2012;49.794;9.722;2023-08-31T04:10:09;8.70;;;3.20;;
3995;SDS011;2012;49.794;9.722;2023-08-31T04:12:36;7.33;;;4.00;;
3995;SDS011;2012;49.794;9.722;2023-08-31T04:15:03;4.37;;;2.77;;
3995;SDS011;2012;49.794;9.722;2023-08-31T04:17:31;5.40;;;3.27;;
3995;SDS011;2012;49.794;9.722;2023-08-31T04:19:58;4.07;;;3.77;;
3995;SDS011;2012;49.794;9.722;2023-08-31T04:22:25;5.97;;;3.60;;
3995;SDS011;2012;49.794;9.722;2023-08-31T04:24:52;7.10;;;4.30;;
3995;SDS011;2012;49.794;9.722;2023-08-31T04:27:19;7.03;;;3.90;;
3995;SDS011;2012;49.794;9.722;2023-08-31T04:29:46;8.27;;;4.80;;
3995;SDS011;2012;49.794;9.722;2023-08-31T04:32:14;6.97;;;4.43;;
3995;SDS011;2012;49.794;9.722;2023-08-31T04:34:41;9.73;;;4.23;;
3995;SDS011;2012;49.794;9.722;2023-08-31T04:37:08;5.43;;;4.27;;
3995;SDS011;2012;49.794;9.722;2023-08-31T04:39:34;5.90;;;5.10;;
3995;SDS011;2012;49.794;9.722;2023-08-31T04:42:01;4.93;;;4.50;;
3995;SDS011;2012;49.794;9.722;2023-08-31T04:44:29;4.43;;;4.03;;
3995;SDS011;2012;49.794;9.722;2023-08-31T04:46:55;5.73;;;4.17;;
3995;SDS011;2012;49.794;9.722;2023-08-31T04:49:22;7.97;;;4.80;;
3995;SDS011;2012;49.794;9.722;2023-08-31T04:51:49;18.83;;;4.57;;
3995;SDS011;2012;49.794;9.722;2023-08-31T04:54:16;11.83;;;4.90;;
3995;SDS011;2012;49.794;9.722;2023-08-31T04:56:43;8.47;;;5.13;;
3995;SDS011;2012;49.794;9.722;2023-08-31T04:59:10;13.77;;;5.83;;
3995;SDS011;2012;49.794;9.722;2023-08-31T05:01:37;9.20;;;7.33;;
3995;SDS011;2012;49.794;9.722;2023-08-31T05:04:03;12.60;;;8.27;;
3995;SDS011;2012;49.794;9.722;2023-08-31T05:06:30;8.17;;;6.07;;
3995;SDS011;2012;49.794;9.722;2023-08-31T05:08:57;10.70;;;6.27;;
3995;SDS011;2012;49.794;9.722;2023-08-31T05:11:24;7.03;;;6.33;;
3995;SDS011;2012;49.794;9.722;2023-08-31T05:13:51;8.50;;;6.20;;
3995;SDS011;2012;49.794;9.722;2023-08-31T05:16:18;13.00;;;7.07;;
3995;SDS011;2012;49.794;9.722;2023-08-31T05:18:45;12.10;;;6.73;;
3995;SDS011;2012;49.794;9.722;2023-08-31T05:21:12;9.63;;;6.53;;
3995;SDS011;2012;49.794;9.722;2023-08-31T05:23:38;8.20;;;6.40;;
3995;SDS011;2012;49.794;9.722;2023-08-31T05:26:06;6.37;;;5.87;;
3995;SDS011;2012;49.794;9.722;2023-08-31T05:28:32;9.13;;;6.03;;
3995;SDS011;2012;49.794;9.722;2023-08-31T05:31:00;6.87;;;6.03;;
3995;SDS011;2012;49.794;9.722;2023-08-31T05:33:28;7.40;;;6.63;;
3995;SDS011;2012;49.794;9.722;2023-08-31T05:35:57;13.00;;;7.53;;
3995;SDS011;2012;49.794;9.722;2023-08-31T05:38:23;8.97;;;6.83;;
3995;SDS011;2012;49.794;9.722;2023-08-31T05:40:50;18.83;;;6.23;;
3995;SDS011;2012;49.794;9.722;2023-08-31T05:43:17;9.07;;;6.40;;
3995;SDS011;2012;49.794;9.722;2023-08-31T05:45:44;11.20;;;6.30;;
3995;SDS011;2012;49.794;9.722;2023-08-31T05:48:12;7.80;;;6.47;;
3995;SDS011;2012;49.794;9.722;2023-08-31T05:50:41;11.53;;;6.87;;
3995;SDS011;2012;49.794;9.722;2023-08-31T05:53:09;7.50;;;6.03;;
3995;SDS011;2012;49.794;9.722;2023-08-31T05:55:37;8.30;;;5.80;;
3995;SDS011;2012;49.794;9.722;2023-08-31T05:58:04;7.10;;;6.50;;
3995;SDS011;2012;49.794;9.722;2023-08-31T06:00:31;11.03;;;6.20;;
3995;SDS011;2012;49.794;9.722;2023-08-31T06:02:58;8.73;;;6.00;;
3995;SDS011;2012;49.794;9.722;2023-08-31T06:05:25;9.70;;;5.53;;
3995;SDS011;2012;49.794;9.722;2023-08-31T06:07:51;7.70;;;6.03;;
3995;SDS011;2012;49.794;9.722;2023-08-31T06:10:18;7.83;;;4.97;;
3995;SDS011;2012;49.794;9.722;2023-08-31T06:12:45;15.30;;;6.07;;
3995;SDS011;2012;49.794;9.722;2023-08-31T06:15:12;18.13;;;7.17;;
3995;SDS011;2012;49.794;9.722;2023-08-31T06:17:41;6.60;;;4.60;;
3995;SDS011;2012;49.794;9.722;2023-08-31T06:20:08;6.23;;;4.87;;
3995;SDS011;2012;49.794;9.722;2023-08-31T06:22:36;6.00;;;4.77;;
3995;SDS011;2012;49.794;9.722;2023-08-31T06:25:03;10.10;;;5.70;;
3995;SDS011;2012;49.794;9.722;2023-08-31T06:27:31;7.90;;;5.50;;
3995;SDS011;2012;49.794;9.722;2023-08-31T06:29:58;9.20;;;5.63;;
3995;SDS011;2012;49.794;9.722;2023-08-31T06:32:25;8.90;;;6.10;;
3995;SDS011;2012;49.794;9.722;2023-08-31T06:34:53;7.90;;;5.23;;
3995;SDS011;2012;49.794;9.722;2023-08-31T06:37:20;6.53;;;5.10;;
3995;SDS011;2012;49.794;9.722;2023-08-31T06:39:47;10.43;;;5.00;;
3995;SDS011;2012;49.794;9.722;2023-08-31T06:42:14;6.17;;;4.50;;
3995;SDS011;2012;49.794;9.722;2023-08-31T06:44:43;5.87;;;3.77;;
3995;SDS011;2012;49.794;9.722;2023-08-31T06:47:10;8.07;;;4.20;;
3995;SDS011;2012;49.794;9.722;2023-08-31T06:49:36;10.73;;;4.40;;
3995;SDS011;2012;49.794;9.722;2023-08-31T06:52:03;4.20;;;3.80;;
3995;SDS011;2012;49.794;9.722;2023-08-31T06:54:53;3.77;;;3.47;;
3995;SDS011;2012;49.794;9.722;2023-08-31T06:57:24;6.90;;;3.33;;
3995;SDS011;2012;49.794;9.722;2023-08-31T06:59:53;9.97;;;4.03;;
3995;SDS011;2012;49.794;9.722;2023-08-31T07:02:20;4.10;;;3.07;;
3995;SDS011;2012;49.794;9.722;2023-08-31T07:04:49;7.93;;;3.53;;
3995;SDS011;2012;49.794;9.722;2023-08-31T07:07:16;6.00;;;3.80;;
3995;SDS011;2012;49.794;9.722;2023-08-31T07:09:43;9.00;;;3.80;;
3995;SDS011;2012;49.794;9.722;2023-08-31T07:12:11;9.33;;;3.10;;
3995;SDS011;2012;49.794;9.722;2023-08-31T07:14:38;5.13;;;3.20;;
3995;SDS011;2012;49.794;9.722;2023-08-31T07:17:05;7.03;;;3.40;;
3995;SDS011;2012;49.794;9.722;2023-08-31T07:19:34;7.40;;;2.67;;
3995;SDS011;2012;49.794;9.722;2023-08-31T07:22:03;7.30;;;3.27;;
3995;SDS011;2012;49.794;9.722;2023-08-31T07:24:32;7.50;;;2.30;;
3995;SDS011;2012;49.794;9.722;2023-08-31T07:27:04;5.23;;;2.90;;
3995;SDS011;2012;49.794;9.722;2023-08-31T07:29:31;6.77;;;2.97;;
3995;SDS011;2012;49.794;9.722;2023-08-31T07:31:58;4.00;;;2.30;;
3995;SDS011;2012;49.794;9.722;2023-08-31T07:34:25;5.13;;;2.40;;
3995;SDS011;2012;49.794;9.722;2023-08-31T07:36:53;4.43;;;2.03;;
3995;SDS011;2012;49.794;9.722;2023-08-31T07:39:20;5.90;;;2.20;;
3995;SDS011;2012;49.794;9.722;2023-08-31T07:41:47;5.67;;;2.23;;
3995;SDS011;2012;49.794;9.722;2023-08-31T07:44:16;2.40;;;2.10;;
3995;SDS011;2012;49.794;9.722;2023-08-31T07:46:43;11.03;;;2.63;;
3995;SDS011;2012;49.794;9.722;2023-08-31T07:49:11;6.97;;;2.53;;
3995;SDS011;2012;49.794;9.722;2023-08-31T07:51:37;3.57;;;1.80;;
3995;SDS011;2012;49.794;9.722;2023-08-31T07:54:04;7.13;;;1.77;;
3995;SDS011;2012;49.794;9.722;2023-08-31T07:56:31;5.80;;;2.60;;
3995;SDS011;2012;49.794;9.722;2023-08-31T07:58:58;3.17;;;1.77;;
3995;SDS011;2012;49.794;9.722;2023-08-31T08:01:25;6.27;;;1.67;;
3995;SDS011;2012;49.794;9.722;2023-08-31T08:03:52;4.57;;;2.23;;
3995;SDS011;2012;49.794;9.722;2023-08-31T08:06:19;4.93;;;1.83;;
3995;SDS011;2012;49.794;9.722;2023-08-31T08:08:46;4.90;;;1.80;;
3995;SDS011;2012;49.794;9.722;2023-08-31T08:11:13;4.50;;;2.00;;
3995;SDS011;2012;49.794;9.722;2023-08-31T08:13:40;3.93;;;2.13;;
3995;SDS011;2012;49.794;9.722;2023-08-31T08:16:07;4.87;;;1.80;;
3995;SDS011;2012;49.794;9.722;2023-08-31T08:18:35;6.73;;;2.30;;
3995;SDS011;2012;49.794;9.722;2023-08-31T08:21:02;7.73;;;2.37;;
3995;SDS011;2012;49.794;9.722;2023-08-31T08:23:30;7.23;;;2.03;;
3995;SDS011;2012;49.794;9.722;2023-08-31T08:25:57;9.50;;;2.03;;
3995;SDS011;2012;49.794;9.722;2023-08-31T08:28:27;5.63;;;2.20;;
3995;SDS011;2012;49.794;9.722;2023-08-31T08:30:54;4.50;;;1.77;;
3995;SDS011;2012;49.794;9.722;2023-08-31T08:33:21;9.30;;;1.70;;
3995;SDS011;2012;49.794;9.722;2023-08-31T08:35:48;6.60;;;2.03;;
3995;SDS011;2012;49.794;9.722;2023-08-31T08:38:15;6.60;;;2.03;;
3995;SDS011;2012;49.794;9.722;2023-08-31T08:40:41;7.03;;;2.20;;
3995;SDS011;2012;49.794;9.722;2023-08-31T08:43:09;8.07;;;2.03;;
3995;SDS011;2012;49.794;9.722;2023-08-31T08:45:38;6.13;;;1.93;;
3995;SDS011;2012;49.794;9.722;2023-08-31T08:48:08;8.17;;;2.27;;
3995;SDS011;2012;49.794;9.722;2023-08-31T08:50:35;5.73;;;1.80;;
3995;SDS011;2012;49.794;9.722;2023-08-31T08:53:03;4.43;;;1.87;;
3995;SDS011;2012;49.794;9.722;2023-08-31T08:55:31;1.97;;;1.50;;
3995;SDS011;2012;49.794;9.722;2023-08-31T08:57:59;1.90;;;1.37;;
3995;SDS011;2012;49.794;9.722;2023-08-31T09:00:27;4.00;;;1.83;;
3995;SDS011;2012;49.794;9.722;2023-08-31T09:02:54;5.80;;;2.40;;
3995;SDS011;2012;49.794;9.722;2023-08-31T09:05:22;4.03;;;2.17;;
3995;SDS011;2012;49.794;9.722;2023-08-31T09:10:32;8.43;;;2.50;;
3995;SDS011;2012;49.794;9.722;2023-08-31T09:13:04;4.67;;;1.53;;
3995;SDS011;2012;49.794;9.722;2023-08-31T09:15:39;5.00;;;1.80;;
3995;SDS011;2012;49.794;9.722;2023-08-31T09:18:28;4.60;;;1.60;;
3995;SDS011;2012;49.794;9.722;2023-08-31T09:20:56;5.23;;;1.70;;
3995;SDS011;2012;49.794;9.722;2023-08-31T09:23:24;5.03;;;1.83;;
3995;SDS011;2012;49.794;9.722;2023-08-31T09:25:52;7.63;;;3.47;;
3995;SDS011;2012;49.794;9.722;2023-08-31T09:28:22;2.77;;;2.03;;
3995;SDS011;2012;49.794;9.722;2023-08-31T09:31:03;7.27;;;1.90;;
3995;SDS011;2012;49.794;9.722;2023-08-31T09:33:32;3.63;;;1.80;;
3995;SDS011;2012;49.794;9.722;2023-08-31T09:36:00;3.37;;;1.97;;
3995;SDS011;2012;49.794;9.722;2023-08-31T09:38:27;2.10;;;1.90;;
3995;SDS011;2012;49.794;9.722;2023-08-31T09:41:04;6.83;;;2.37;;
3995;SDS011;2012;49.794;9.722;2023-08-31T09:43:34;4.23;;;1.80;;
3995;SDS011;2012;49.794;9.722;2023-08-31T09:46:02;4.40;;;1.57;;
3995;SDS011;2012;49.794;9.722;2023-08-31T09:48:30;3.97;;;1.77;;
3995;SDS011;2012;49.794;9.722;2023-08-31T09:50:57;3.00;;;1.43;;
3995;SDS011;2012;49.794;9.722;2023-08-31T09:53:29;1.80;;;1.50;;
3995;SDS011;2012;49.794;9.722;2023-08-31T09:55:57;1.93;;;1.50;;
3995;SDS011;2012;49.794;9.722;2023-08-31T09:58:25;1.53;;;1.40;;
3995;SDS011;2012;49.794;9.722;2023-08-31T10:00:55;6.87;;;1.60;;
3995;SDS011;2012;49.794;9.722;2023-08-31T10:03:22;3.20;;;1.60;;
3995;SDS011;2012;49.794;9.722;2023-08-31T10:05:49;1.97;;;1.40;;
3995;SDS011;2012;49.794;9.722;2023-08-31T10:08:17;2.93;;;1.60;;
3995;SDS011;2012;49.794;9.722;2023-08-31T10:10:45;3.60;;;1.27;;
3995;SDS011;2012;49.794;9.722;2023-08-31T10:13:13;4.03;;;1.33;;
3995;SDS011;2012;49.794;9.722;2023-08-31T10:15:43;3.67;;;1.60;;
3995;SDS011;2012;49.794;9.722;2023-08-31T10:18:11;2.90;;;1.60;;
3995;SDS011;2012;49.794;9.722;2023-08-31T10:20:39;4.30;;;1.70;;
3995;SDS011;2012;49.794;9.722;2023-08-31T10:23:09;4.57;;;1.77;;
3995;SDS011;2012;49.794;9.722;2023-08-31T10:28:19;4.00;;;1.60;;
3995;SDS011;2012;49.794;9.722;2023-08-31T10:31:06;3.33;;;1.60;;
3995;SDS011;2012;49.794;9.722;2023-08-31T10:33:45;2.07;;;1.87;;
3995;SDS011;2012;49.794;9.722;2023-08-31T10:36:18;3.27;;;2.00;;
3995;SDS011;2012;49.794;9.722;2023-08-31T10:38:46;5.10;;;1.73;;
3995;SDS011;2012;49.794;9.722;2023-08-31T10:41:32;8.50;;;2.47;;
3995;SDS011;2012;49.794;9.722;2023-08-31T10:44:17;5.13;;;2.23;;
3995;SDS011;2012;49.794;9.722;2023-08-31T10:46:51;5.40;;;1.70;;
3995;SDS011;2012;49.794;9.722;2023-08-31T10:49:20;1.80;;;1.40;;
3995;SDS011;2012;49.794;9.722;2023-08-31T10:51:49;2.80;;;1.83;;
3995;SDS011;2012;49.794;9.722;2023-08-31T10:54:26;4.30;;;1.80;;
3995;SDS011;2012;49.794;9.722;2023-08-31T10:59:24;1.97;;;1.80;;
3995;SDS011;2012;49.794;9.722;2023-08-31T11:01:59;5.13;;;1.90;;
3995;SDS011;2012;49.794;9.722;2023-08-31T11:04:29;3.13;;;1.37;;
3995;SDS011;2012;49.794;9.722;2023-08-31T11:07:12;4.40;;;2.00;;
3995;SDS011;2012;49.794;9.722;2023-08-31T11:09:44;5.50;;;1.63;;
3995;SDS011;2012;49.794;9.722;2023-08-31T11:12:12;4.53;;;1.63;;
3995;SDS011;2012;49.794;9.722;2023-08-31T11:14:39;4.27;;;1.50;;
3995;SDS011;2012;49.794;9.722;2023-08-31T11:17:06;4.17;;;1.50;;
3995;SDS011;2012;49.794;9.722;2023-08-31T11:19:34;3.87;;;1.53;;
3995;SDS011;2012;49.794;9.722;2023-08-31T11:22:02;6.73;;;1.53;;
3995;SDS011;2012;49.794;9.722;2023-08-31T11:24:30;2.60;;;1.70;;
3995;SDS011;2012;49.794;9.722;2023-08-31T11:26:58;3.57;;;1.50;;
3995;SDS011;2012;49.794;9.722;2023-08-31T11:29:25;2.40;;;1.80;;
3995;SDS011;2012;49.794;9.722;2023-08-31T11:31:55;4.30;;;1.70;;
3995;SDS011;2012;49.794;9.722;2023-08-31T11:34:24;2.70;;;1.67;;
3995;SDS011;2012;49.794;9.722;2023-08-31T11:36:50;2.30;;;1.43;;
3995;SDS011;2012;49.794;9.722;2023-08-31T11:39:18;5.50;;;1.40;;
3995;SDS011;2012;49.794;9.722;2023-08-31T11:41:45;6.30;;;1.63;;
3995;SDS011;2012;49.794;9.722;2023-08-31T11:44:13;3.80;;;1.80;;
3995;SDS011;2012;49.794;9.722;2023-08-31T11:46:43;2.80;;;1.63;;
3995;SDS011;2012;49.794;9.722;2023-08-31T11:49:14;1.90;;;1.47;;
3995;SDS011;2012;49.794;9.722;2023-08-31T11:51:42;7.00;;;1.63;;
3995;SDS011;2012;49.794;9.722;2023-08-31T11:54:10;9.43;;;2.10;;
3995;SDS011;2012;49.794;9.722;2023-08-31T11:56:43;4.17;;;2.00;;
3995;SDS011;2012;49.794;9.722;2023-08-31T11:59:17;6.50;;;1.50;;
3995;SDS011;2012;49.794;9.722;2023-08-31T12:01:46;6.23;;;1.90;;
3995;SDS011;2012;49.794;9.722;2023-08-31T12:04:16;3.33;;;1.40;;
3995;SDS011;2012;49.794;9.722;2023-08-31T12:06:46;2.47;;;1.30;;
3995;SDS011;2012;49.794;9.722;2023-08-31T12:09:16;3.67;;;1.60;;
3995;SDS011;2012;49.794;9.722;2023-08-31T12:11:49;5.30;;;1.60;;
3995;SDS011;2012;49.794;9.722;2023-08-31T12:14:20;4.07;;;1.73;;
3995;SDS011;2012;49.794;9.722;2023-08-31T12:16:53;4.10;;;1.60;;
3995;SDS011;2012;49.794;9.722;2023-08-31T12:19:30;7.50;;;2.23;;
3995;SDS011;2012;49.794;9.722;2023-08-31T12:21:57;3.97;;;1.87;;
3995;SDS011;2012;49.794;9.722;2023-08-31T12:24:25;6.83;;;2.13;;
3995;SDS011;2012;49.794;9.722;2023-08-31T12:26:52;2.87;;;1.50;;
3995;SDS011;2012;49.794;9.722;2023-08-31T12:29:20;6.17;;;1.77;;
3995;SDS011;2012;49.794;9.722;2023-08-31T12:31:48;5.60;;;1.80;;
3995;SDS011;2012;49.794;9.722;2023-08-31T12:34:17;4.67;;;1.60;;
3995;SDS011;2012;49.794;9.722;2023-08-31T12:36:43;2.80;;;1.53;;
3995;SDS011;2012;49.794;9.722;2023-08-31T12:39:10;3.33;;;1.40;;
3995;SDS011;2012;49.794;9.722;2023-08-31T12:41:38;4.80;;;1.73;;
3995;SDS011;2012;49.794;9.722;2023-08-31T12:44:06;4.13;;;1.63;;
3995;SDS011;2012;49.794;9.722;2023-08-31T12:46:34;3.47;;;1.60;;
3995;SDS011;2012;49.794;9.722;2023-08-31T12:49:01;4.03;;;1.37;;
3995;SDS011;2012;49.794;9.722;2023-08-31T12:51:30;6.17;;;1.93;;
3995;SDS011;2012;49.794;9.722;2023-08-31T12:53:57;2.97;;;1.53;;
3995;SDS011;2012;49.794;9.722;2023-08-31T12:56:24;2.90;;;1.73;;
3995;SDS011;2012;49.794;9.722;2023-08-31T12:58:52;4.90;;;1.50;;
3995;SDS011;2012;49.794;9.722;2023-08-31T13:01:20;2.50;;;1.93;;
3995;SDS011;2012;49.794;9.722;2023-08-31T13:03:49;2.67;;;1.73;;
3995;SDS011;2012;49.794;9.722;2023-08-31T13:06:16;3.83;;;2.10;;
3995;SDS011;2012;49.794;9.722;2023-08-31T13:08:43;3.43;;;2.20;;
3995;SDS011;2012;49.794;9.722;2023-08-31T13:11:11;5.40;;;1.77;;
3995;SDS011;2012;49.794;9.722;2023-08-31T13:13:41;3.00;;;1.37;;
3995;SDS011;2012;49.794;9.722;2023-08-31T13:16:08;4.07;;;2.03;;
3995;SDS011;2012;49.794;9.722;2023-08-31T13:18:35;3.83;;;1.93;;
3995;SDS011;2012;49.794;9.722;2023-08-31T13:21:02;2.93;;;1.30;;
3995;SDS011;2012;49.794;9.722;2023-08-31T13:23:29;3.53;;;1.67;;
3995;SDS011;2012;49.794;9.722;2023-08-31T13:25:56;3.23;;;1.30;;
3995;SDS011;2012;49.794;9.722;2023-08-31T13:28:23;1.37;;;1.10;;
3995;SDS011;2012;49.794;9.722;2023-08-31T13:30:50;2.13;;;1.60;;
3995;SDS011;2012;49.794;9.722;2023-08-31T13:33:23;2.90;;;1.90;;
3995;SDS011;2012;49.794;9.722;2023-08-31T13:35:50;2.70;;;1.93;;
3995;SDS011;2012;49.794;9.722;2023-08-31T13:38:17;4.90;;;1.33;;
3995;SDS011;2012;49.794;9.722;2023-08-31T13:40:44;2.70;;;1.57;;
3995;SDS011;2012;49.794;9.722;2023-08-31T13:43:11;8.80;;;1.80;;
3995;SDS011;2012;49.794;9.722;2023-08-31T13:45:38;3.73;;;1.60;;
3995;SDS011;2012;49.794;9.722;2023-08-31T13:48:05;2.20;;;1.53;;
3995;SDS011;2012;49.794;9.722;2023-08-31T13:50:32;2.13;;;1.70;;
3995;SDS011;2012;49.794;9.722;2023-08-31T13:52:59;3.10;;;1.80;;
3995;SDS011;2012;49.794;9.722;2023-08-31T13:55:26;2.97;;;1.63;;
3995;SDS011;2012;49.794;9.722;2023-08-31T13:57:53;1.83;;;1.43;;
3995;SDS011;2012;49.794;9.722;2023-08-31T14:00:20;3.50;;;2.07;;
3995;SDS011;2012;49.794;9.722;2023-08-31T14:02:47;2.33;;;1.70;;
3995;SDS011;2012;49.794;9.722;2023-08-31T14:05:14;3.50;;;1.63;;
3995;SDS011;2012;49.794;9.722;2023-08-31T14:07:41;5.13;;;2.30;;
3995;SDS011;2012;49.794;9.722;2023-08-31T14:10:08;2.50;;;1.67;;
3995;SDS011;2012;49.794;9.722;2023-08-31T14:12:35;6.53;;;2.00;;
3995;SDS011;2012;49.794;9.722;2023-08-31T14:15:02;4.73;;;1.83;;
3995;SDS011;2012;49.794;9.722;2023-08-31T14:17:30;3.07;;;1.70;;
3995;SDS011;2012;49.794;9.722;2023-08-31T14:19:58;3.23;;;1.70;;
3995;SDS011;2012;49.794;9.722;2023-08-31T14:22:26;3.07;;;1.93;;
3995;SDS011;2012;49.794;9.722;2023-08-31T14:24:55;10.00;;;1.97;;
3995;SDS011;2012;49.794;9.722;2023-08-31T14:27:22;5.37;;;1.73;;
3995;SDS011;2012;49.794;9.722;2023-08-31T14:29:49;7.03;;;1.80;;
3995;SDS011;2012;49.794;9.722;2023-08-31T14:32:17;3.93;;;1.80;;
3995;SDS011;2012;49.794;9.722;2023-08-31T14:34:43;6.60;;;2.17;;
3995;SDS011;2012;49.794;9.722;2023-08-31T14:37:10;7.30;;;2.33;;
3995;SDS011;2012;49.794;9.722;2023-08-31T14:39:37;3.60;;;1.70;;
3995;SDS011;2012;49.794;9.722;2023-08-31T14:42:04;13.73;;;2.30;;
3995;SDS011;2012;49.794;9.722;2023-08-31T14:44:31;7.57;;;2.90;;
3995;SDS011;2012;49.794;9.722;2023-08-31T14:46:58;9.17;;;2.47;;
3995;SDS011;2012;49.794;9.722;2023-08-31T14:49:25;5.63;;;2.40;;
3995;SDS011;2012;49.794;9.722;2023-08-31T14:51:52;5.67;;;2.17;;
3995;SDS011;2012;49.794;9.722;2023-08-31T14:54:19;6.90;;;2.43;;
3995;SDS011;2012;49.794;9.722;2023-08-31T14:56:45;5.97;;;2.40;;
3995;SDS011;2012;49.794;9.722;2023-08-31T14:59:12;4.30;;;1.50;;
3995;SDS011;2012;49.794;9.722;2023-08-31T15:01:39;4.47;;;2.10;;
3995;SDS011;2012;49.794;9.722;2023-08-31T15:04:06;6.27;;;1.93;;
3995;SDS011;2012;49.794;9.722;2023-08-31T15:06:33;3.50;;;2.07;;
3995;SDS011;2012;49.794;9.722;2023-08-31T15:09:00;5.50;;;2.03;;
3995;SDS011;2012;49.794;9.722;2023-08-31T15:11:27;5.27;;;2.20;;
3995;SDS011;2012;49.794;9.722;2023-08-31T15:13:55;3.20;;;1.83;;
3995;SDS011;2012;49.794;9.722;2023-08-31T15:16:23;3.80;;;2.37;;
3995;SDS011;2012;49.794;9.722;2023-08-31T15:18:50;6.37;;;1.90;;
3995;SDS011;2012;49.794;9.722;2023-08-31T15:21:18;9.77;;;2.37;;
3995;SDS011;2012;49.794;9.722;2023-08-31T15:23:45;4.07;;;2.30;;
3995;SDS011;2012;49.794;9.722;2023-08-31T15:26:12;5.23;;;1.80;;
3995;SDS011;2012;49.794;9.722;2023-08-31T15:28:41;8.03;;;1.97;;
3995;SDS011;2012;49.794;9.722;2023-08-31T15:31:08;5.57;;;2.10;;
3995;SDS011;2012;49.794;9.722;2023-08-31T15:33:38;7.73;;;2.17;;
3995;SDS011;2012;49.794;9.722;2023-08-31T15:36:06;5.27;;;2.40;;
3995;SDS011;2012;49.794;9.722;2023-08-31T15:38:33;4.80;;;2.30;;